createdAt,value
2023-02-11T00:00:35.116Z,14.90
2023-02-11T00:03:04.840Z,15.40
2023-02-11T00:05:36.977Z,16.13
2023-02-11T00:08:07.346Z,14.90
2023-02-11T00:10:37.169Z,15.50
2023-02-11T00:13:09.636Z,14.87
2023-02-11T00:15:40.130Z,16.10
2023-02-11T00:18:09.868Z,16.07
2023-02-11T00:20:42.052Z,15.10
2023-02-11T00:23:12.129Z,14.00
2023-02-11T00:25:43.058Z,14.83
2023-02-11T00:28:16.178Z,15.13
2023-02-11T00:30:46.156Z,14.80
2023-02-11T00:33:15.999Z,14.97
2023-02-11T00:35:45.743Z,15.70
2023-02-11T00:38:15.643Z,14.90
2023-02-11T00:40:45.688Z,15.50
2023-02-11T00:43:18.167Z,14.50
2023-02-11T00:45:48.245Z,14.07
2023-02-11T00:48:18.114Z,15.33
2023-02-11T00:50:47.885Z,14.87
2023-02-11T00:53:17.671Z,9.23
2023-02-11T00:55:47.551Z,13.83
2023-02-11T00:58:20.147Z,14.20
2023-02-11T01:00:50.314Z,13.67
2023-02-11T01:03:20.087Z,14.77
2023-02-11T01:05:50.175Z,15.00
2023-02-11T01:08:20.048Z,13.90
2023-02-11T01:10:57.204Z,14.10
2023-02-11T01:13:31.564Z,12.37
2023-02-11T01:16:01.773Z,15.47
2023-02-11T01:18:32.101Z,14.30
2023-02-11T01:21:02.156Z,13.30
2023-02-11T01:23:31.880Z,13.57
2023-02-11T01:26:01.714Z,15.17
2023-02-11T01:28:35.309Z,14.70
2023-02-11T01:31:06.198Z,13.90
2023-02-11T01:33:36.206Z,13.13
2023-02-11T01:36:07.766Z,12.40
2023-02-11T01:38:38.384Z,13.73
2023-02-11T01:41:10.825Z,12.97
2023-02-11T01:43:46.422Z,13.80
2023-02-11T01:46:26.474Z,13.23
2023-02-11T01:48:59.819Z,13.53
2023-02-11T01:51:34.767Z,13.17
2023-02-11T01:54:19.115Z,12.57
2023-02-11T01:57:04.909Z,12.60
2023-02-11T01:59:43.476Z,13.53
2023-02-11T02:02:15.875Z,12.60
2023-02-11T02:04:51.479Z,11.00
2023-02-11T02:07:31.045Z,10.07
2023-02-11T02:10:06.446Z,13.27
2023-02-11T02:12:36.444Z,13.03
2023-02-11T02:15:35.334Z,12.37
2023-02-11T02:18:16.647Z,11.70
2023-02-11T02:21:15.408Z,11.23
2023-02-11T02:24:14.090Z,12.13
2023-02-11T02:27:17.685Z,12.23
2023-02-11T02:30:09.807Z,12.10
2023-02-11T02:32:53.671Z,11.47
2023-02-11T02:35:36.863Z,11.23
2023-02-11T02:38:11.476Z,11.53
2023-02-11T02:40:48.132Z,12.40
2023-02-11T02:43:18.669Z,10.80
2023-02-11T02:45:48.839Z,9.70
2023-02-11T02:48:35.831Z,11.50
2023-02-11T02:51:18.462Z,11.17
2023-02-11T02:53:58.569Z,11.70
2023-02-11T02:56:38.338Z,9.60
2023-02-11T02:59:21.761Z,9.93
2023-02-11T03:02:00.779Z,9.93
2023-02-11T03:04:40.406Z,10.17
2023-02-11T03:07:20.984Z,9.97
2023-02-11T03:09:58.068Z,9.93
2023-02-11T03:12:30.711Z,10.37
2023-02-11T03:15:02.487Z,9.67
2023-02-11T03:17:35.468Z,10.03
2023-02-11T03:20:13.018Z,9.43
2023-02-11T03:22:48.097Z,10.37
2023-02-11T03:25:18.568Z,10.03
2023-02-11T03:27:55.795Z,10.23
2023-02-11T03:30:30.589Z,10.03
2023-02-11T03:33:06.158Z,9.37
2023-02-11T03:35:43.423Z,10.17
2023-02-11T03:38:18.917Z,8.33
2023-02-11T03:40:48.962Z,10.50
2023-02-11T03:43:23.402Z,10.40
2023-02-11T03:45:56.329Z,9.77
2023-02-11T03:48:30.199Z,10.37
2023-02-11T03:51:07.023Z,10.87
2023-02-11T03:53:37.182Z,11.07
2023-02-11T03:56:12.230Z,9.93
2023-02-11T03:58:42.204Z,10.73
2023-02-11T04:01:12.184Z,10.57
2023-02-11T04:03:42.002Z,10.00
2023-02-11T04:06:14.696Z,10.10
2023-02-11T04:08:44.449Z,9.87
2023-02-11T04:11:14.167Z,10.33
2023-02-11T04:13:44.195Z,10.30
2023-02-11T04:16:14.231Z,11.00
2023-02-11T04:18:44.380Z,10.83
2023-02-11T04:21:17.129Z,10.33
2023-02-11T04:23:46.879Z,10.00
2023-02-11T04:26:16.621Z,9.57
2023-02-11T04:28:46.369Z,11.00
2023-02-11T04:31:16.198Z,10.70
2023-02-11T04:33:46.057Z,11.00
2023-02-11T04:36:18.647Z,10.57
2023-02-11T04:38:51.267Z,11.63
2023-02-11T04:41:21.062Z,11.33
2023-02-11T04:43:50.918Z,11.50
2023-02-11T04:46:21.007Z,11.53
2023-02-11T04:48:50.799Z,11.00
2023-02-11T04:51:23.223Z,11.50
2023-02-11T04:53:53.011Z,11.07
2023-02-11T04:56:22.853Z,10.60
2023-02-11T04:58:52.650Z,11.23
2023-02-11T05:01:22.893Z,12.43
2023-02-11T05:03:52.816Z,11.40
2023-02-11T05:06:25.588Z,10.93
2023-02-11T05:08:55.407Z,12.23
2023-02-11T05:11:27.837Z,9.53
2023-02-11T05:13:57.768Z,11.77
2023-02-11T05:16:27.636Z,11.57
2023-02-11T05:18:57.458Z,11.87
2023-02-11T05:21:29.881Z,11.50
2023-02-11T05:23:59.862Z,12.43
2023-02-11T05:26:30.041Z,12.90
2023-02-11T05:29:00.134Z,12.87
2023-02-11T05:31:29.851Z,12.27
2023-02-11T05:33:59.657Z,14.17
2023-02-11T05:36:33.453Z,13.43
2023-02-11T05:39:03.423Z,12.87
2023-02-11T05:41:33.205Z,13.80
2023-02-11T05:44:02.965Z,13.87
2023-02-11T05:46:33.203Z,13.83
2023-02-11T05:49:03.012Z,13.67
2023-02-11T05:51:35.404Z,14.20
2023-02-11T05:54:05.455Z,13.63
2023-02-11T05:56:35.186Z,15.10
2023-02-11T05:59:04.966Z,13.90
2023-02-11T06:01:34.887Z,15.13
2023-02-11T06:04:06.133Z,14.93
2023-02-11T06:06:38.551Z,14.20
2023-02-11T06:09:08.413Z,14.00
2023-02-11T06:11:38.205Z,15.40
2023-02-11T06:14:08.371Z,14.83
2023-02-11T06:16:38.338Z,13.67
2023-02-11T06:19:08.146Z,14.40
2023-02-11T06:21:44.154Z,13.90
2023-02-11T06:24:14.399Z,14.57
2023-02-11T06:26:44.470Z,14.07
2023-02-11T06:29:14.435Z,13.57
2023-02-11T06:31:44.564Z,13.33
2023-02-11T06:34:14.477Z,14.47
2023-02-11T06:36:47.122Z,14.47
2023-02-11T06:39:17.066Z,13.27
2023-02-11T06:41:46.887Z,13.30
2023-02-11T06:44:16.594Z,12.53
2023-02-11T06:46:46.445Z,13.33
2023-02-11T06:49:16.330Z,14.00
2023-02-11T06:51:49.067Z,12.57
2023-02-11T06:54:18.913Z,12.07
2023-02-11T06:56:48.841Z,13.20
2023-02-11T06:59:20.678Z,12.53
2023-02-11T07:01:50.746Z,12.70
2023-02-11T07:04:20.527Z,12.50
2023-02-11T07:06:52.923Z,12.83
2023-02-11T07:09:22.773Z,11.73
2023-02-11T07:11:52.516Z,12.37
2023-02-11T07:14:22.295Z,12.73
2023-02-11T07:16:52.046Z,11.90
2023-02-11T07:19:21.848Z,12.63
2023-02-11T07:21:55.343Z,12.33
2023-02-11T07:24:25.487Z,12.77
2023-02-11T07:26:56.310Z,13.10
2023-02-11T07:29:26.415Z,13.93
2023-02-11T07:31:56.214Z,13.77
2023-02-11T07:34:26.267Z,13.73
2023-02-11T07:36:59.004Z,13.17
2023-02-11T07:39:29.618Z,12.13
2023-02-11T07:42:00.193Z,13.70
2023-02-11T07:44:30.035Z,13.60
2023-02-11T07:46:59.922Z,13.27
2023-02-11T07:49:29.905Z,13.07
2023-02-11T07:52:02.441Z,12.80
2023-02-11T07:54:32.492Z,12.70
2023-02-11T07:57:02.321Z,13.13
2023-02-11T07:59:32.172Z,13.87
2023-02-11T08:02:01.950Z,13.27
2023-02-11T08:04:31.830Z,12.53
2023-02-11T08:07:05.162Z,13.97
2023-02-11T08:09:35.058Z,13.43
2023-02-11T08:12:04.852Z,14.33
2023-02-11T08:14:35.550Z,14.10
2023-02-11T08:17:05.932Z,13.70
2023-02-11T08:19:35.688Z,12.80
2023-02-11T08:22:08.486Z,12.80
2023-02-11T08:24:38.454Z,13.33
2023-02-11T08:27:08.271Z,14.57
2023-02-11T08:29:37.984Z,13.47
2023-02-11T08:32:08.018Z,14.63
2023-02-11T08:34:37.934Z,14.53
2023-02-11T08:37:10.378Z,15.37
2023-02-11T08:39:40.322Z,15.13
2023-02-11T08:42:10.344Z,15.47
2023-02-11T08:44:40.196Z,14.53
2023-02-11T08:47:10.085Z,15.60
2023-02-11T08:49:42.263Z,16.60
2023-02-11T08:52:14.660Z,16.27
2023-02-11T08:54:44.360Z,16.10
2023-02-11T08:57:14.206Z,15.77
2023-02-11T08:59:44.096Z,15.40
2023-02-11T09:02:15.574Z,16.30
2023-02-11T09:04:45.422Z,15.83
2023-02-11T09:07:18.074Z,15.77
2023-02-11T09:09:47.850Z,16.30
2023-02-11T09:12:18.130Z,15.83
2023-02-11T09:14:47.981Z,17.03
2023-02-11T09:17:17.695Z,17.30
2023-02-11T09:19:47.775Z,17.43
2023-02-11T09:22:20.395Z,17.30
2023-02-11T09:24:50.105Z,18.60
2023-02-11T09:27:19.870Z,17.60
2023-02-11T09:29:49.629Z,16.47
2023-02-11T09:32:19.371Z,15.83
2023-02-11T09:34:49.118Z,17.60
2023-02-11T09:37:21.546Z,16.53
2023-02-11T09:39:51.569Z,16.10
2023-02-11T09:42:42.162Z,17.67
2023-02-11T09:45:18.866Z,17.73
2023-02-11T09:47:53.497Z,18.63
2023-02-11T09:50:28.768Z,17.20
2023-02-11T09:53:05.336Z,17.00
2023-02-11T09:55:39.613Z,16.23
2023-02-11T09:58:15.578Z,17.43
2023-02-11T10:00:51.353Z,18.60
2023-02-11T10:03:49.139Z,17.17
2023-02-11T10:06:39.055Z,16.60
2023-02-11T10:09:30.950Z,16.33
2023-02-11T10:12:14.396Z,16.93
2023-02-11T10:15:02.423Z,17.07
2023-02-11T10:17:44.420Z,17.57
2023-02-11T10:20:26.449Z,16.47
2023-02-11T10:22:58.091Z,17.97
2023-02-11T10:25:36.669Z,17.23
2023-02-11T10:28:17.099Z,15.23
2023-02-11T10:30:54.447Z,17.40
2023-02-11T10:33:30.611Z,17.47
2023-02-11T10:36:00.428Z,18.27
2023-02-11T10:38:31.066Z,17.57
2023-02-11T10:41:03.483Z,17.37
2023-02-11T10:43:35.731Z,17.87
2023-02-11T10:46:09.041Z,18.93
2023-02-11T10:48:42.421Z,17.80
2023-02-11T10:51:20.077Z,18.37
2023-02-11T10:53:51.489Z,18.40
2023-02-11T10:56:31.006Z,17.93
2023-02-11T10:59:03.720Z,18.23
2023-02-11T11:01:46.291Z,19.33
2023-02-11T11:04:37.738Z,19.30
2023-02-11T11:07:17.751Z,18.80
2023-02-11T11:09:51.194Z,18.00
2023-02-11T11:12:42.262Z,19.67
2023-02-11T11:15:22.100Z,19.00
2023-02-11T11:17:52.565Z,19.67
2023-02-11T11:20:27.490Z,20.23
2023-02-11T11:23:13.466Z,19.13
2023-02-11T11:25:46.474Z,19.80
2023-02-11T11:28:28.006Z,19.97
2023-02-11T11:30:59.781Z,18.97
2023-02-11T11:33:32.384Z,20.43
2023-02-11T11:36:06.319Z,19.73
2023-02-11T11:38:40.160Z,19.07
2023-02-11T11:41:26.192Z,20.10
2023-02-11T11:44:04.531Z,20.63
2023-02-11T11:46:37.905Z,20.63
2023-02-11T11:49:18.016Z,19.77
2023-02-11T11:51:54.612Z,20.10
2023-02-11T11:54:27.860Z,18.93
2023-02-11T11:57:02.992Z,19.30
2023-02-11T11:59:37.266Z,21.43
2023-02-11T12:02:44.697Z,20.70
2023-02-11T12:05:20.058Z,20.87
2023-02-11T12:08:03.304Z,20.97
2023-02-11T12:10:51.307Z,21.00
2023-02-11T12:13:36.957Z,21.63
2023-02-11T12:16:17.231Z,20.13
2023-02-11T12:19:20.761Z,20.97
2023-02-11T12:22:03.792Z,18.90
2023-02-11T12:24:46.470Z,20.77
2023-02-11T12:27:21.644Z,19.93
2023-02-11T12:30:16.332Z,19.97
2023-02-11T12:32:57.834Z,20.17
2023-02-11T12:35:46.118Z,21.57
2023-02-11T12:38:32.429Z,20.43
2023-02-11T12:41:42.496Z,21.00
2023-02-11T12:44:21.916Z,20.53
2023-02-11T12:46:59.323Z,21.17
2023-02-11T12:50:00.236Z,21.90
2023-02-11T12:52:44.316Z,20.10
2023-02-11T12:55:23.258Z,21.00
2023-02-11T12:57:55.358Z,19.73
2023-02-11T13:00:28.208Z,21.73
2023-02-11T13:03:02.832Z,20.97
2023-02-11T13:05:41.467Z,22.23
2023-02-11T13:08:18.466Z,23.23
2023-02-11T13:10:53.364Z,22.40
2023-02-11T13:13:28.173Z,21.37
2023-02-11T13:16:02.825Z,23.07
2023-02-11T13:18:49.559Z,21.33
2023-02-11T13:21:34.982Z,21.37
2023-02-11T13:24:17.135Z,21.53
2023-02-11T13:26:53.701Z,22.23
2023-02-11T13:29:32.551Z,22.03
2023-02-11T13:32:10.717Z,21.57
2023-02-11T13:35:02.026Z,21.07
2023-02-11T13:37:39.894Z,21.63
2023-02-11T13:40:24.508Z,21.33
2023-02-11T13:42:56.933Z,22.53
2023-02-11T13:45:33.685Z,20.13
2023-02-11T13:48:08.415Z,21.87
2023-02-11T13:50:42.146Z,21.37
2023-02-11T13:53:16.079Z,20.70
2023-02-11T13:55:48.505Z,22.83
2023-02-11T13:58:40.163Z,22.40
2023-02-11T14:01:10.787Z,21.67
2023-02-11T14:03:54.155Z,23.27
2023-02-11T14:06:51.060Z,21.60
2023-02-11T14:09:44.803Z,23.80
2023-02-11T14:12:38.613Z,22.00
2023-02-11T14:15:28.935Z,21.17
2023-02-11T14:17:59.261Z,22.63
2023-02-11T14:20:47.888Z,21.23
2023-02-11T14:23:29.623Z,22.07
2023-02-11T14:26:20.145Z,22.57
2023-02-11T14:28:52.663Z,23.47
2023-02-11T14:31:27.809Z,23.70
2023-02-11T14:34:21.368Z,22.73
2023-02-11T14:37:03.751Z,22.93
2023-02-11T14:39:49.639Z,22.27
2023-02-11T14:42:27.017Z,21.93
2023-02-11T14:44:59.610Z,21.20
2023-02-11T14:47:38.089Z,20.87
2023-02-11T14:50:10.393Z,22.43
2023-02-11T14:52:41.194Z,22.17
2023-02-11T14:55:31.361Z,28.00
2023-02-11T14:58:17.252Z,22.17
2023-02-11T15:00:56.007Z,24.07
2023-02-11T15:03:35.637Z,23.03
2023-02-11T15:06:09.262Z,22.87
2023-02-11T15:08:41.250Z,22.50
2023-02-11T15:11:15.008Z,23.83
2023-02-11T15:13:49.798Z,21.47
2023-02-11T15:16:23.011Z,23.97
2023-02-11T15:18:56.236Z,22.60
2023-02-11T15:21:28.851Z,21.40
2023-02-11T15:24:00.883Z,20.70
2023-02-11T15:26:31.433Z,22.23
2023-02-11T15:29:05.061Z,20.90
2023-02-11T15:31:35.362Z,21.93
2023-02-11T15:34:10.850Z,22.50
2023-02-11T15:36:41.285Z,19.13
2023-02-11T15:39:31.323Z,22.63
2023-02-11T15:42:19.217Z,22.33
2023-02-11T15:44:56.719Z,21.40
2023-02-11T15:47:32.872Z,21.90
2023-02-11T15:50:03.174Z,21.70
2023-02-11T15:52:33.540Z,21.60
2023-02-11T15:55:04.722Z,21.33
2023-02-11T15:57:34.602Z,20.73
2023-02-11T16:00:08.314Z,20.63
2023-02-11T16:02:45.211Z,21.73
2023-02-11T16:05:30.297Z,21.63
2023-02-11T16:08:01.298Z,21.00
2023-02-11T16:10:33.590Z,21.50
2023-02-11T16:13:21.000Z,20.73
2023-02-11T16:15:57.605Z,21.50
2023-02-11T16:18:38.720Z,21.10
2023-02-11T16:21:16.140Z,22.43
2023-02-11T16:23:52.298Z,22.00
2023-02-11T16:26:30.741Z,21.00
2023-02-11T16:29:14.665Z,22.20
2023-02-11T16:31:50.485Z,21.43
2023-02-11T16:34:22.821Z,22.07
2023-02-11T16:36:53.751Z,22.63
2023-02-11T16:39:25.480Z,21.33
2023-02-11T16:41:56.314Z,22.43
2023-02-11T16:44:26.330Z,24.27
2023-02-11T16:47:01.685Z,22.87
2023-02-11T16:49:34.854Z,22.43
2023-02-11T16:52:09.876Z,23.50
2023-02-11T16:54:39.742Z,22.20
2023-02-11T16:57:16.960Z,21.67
2023-02-11T16:59:47.841Z,22.90
2023-02-11T17:02:25.900Z,21.13
2023-02-11T17:04:56.739Z,22.83
2023-02-11T17:07:26.640Z,23.57
2023-02-11T17:09:56.746Z,22.63
2023-02-11T17:12:27.480Z,24.53
2023-02-11T17:14:57.910Z,22.77
2023-02-11T17:17:30.528Z,23.67
2023-02-11T17:20:00.632Z,23.47
2023-02-11T17:22:31.152Z,23.10
2023-02-11T17:25:01.083Z,23.47
2023-02-11T17:27:31.150Z,23.00
2023-02-11T17:30:01.004Z,22.83
2023-02-11T17:32:33.529Z,23.60
2023-02-11T17:35:03.459Z,22.63
2023-02-11T17:37:33.396Z,24.23
2023-02-11T17:40:03.503Z,23.77
2023-02-11T17:42:33.872Z,24.00
2023-02-11T17:45:03.614Z,23.03
2023-02-11T17:47:36.002Z,23.87
2023-02-11T17:50:05.944Z,22.70
2023-02-11T17:52:36.811Z,22.97
2023-02-11T17:55:07.822Z,23.90
2023-02-11T17:57:37.594Z,24.03
2023-02-11T18:00:09.211Z,22.87
2023-02-11T18:02:41.639Z,22.50
2023-02-11T18:05:12.215Z,23.97
2023-02-11T18:07:42.104Z,23.63
2023-02-11T18:10:13.155Z,24.43
2023-02-11T18:12:43.145Z,23.90
2023-02-11T18:15:15.953Z,23.80
2023-02-11T18:17:48.482Z,25.33
2023-02-11T18:20:18.315Z,24.70
2023-02-11T18:22:48.182Z,23.97
2023-02-11T18:25:19.156Z,25.33
2023-02-11T18:27:49.239Z,24.93
2023-02-11T18:30:20.902Z,25.47
2023-02-11T18:32:56.561Z,24.73
2023-02-11T18:35:27.107Z,24.67
2023-02-11T18:37:56.981Z,25.03
2023-02-11T18:40:26.820Z,24.30
2023-02-11T18:42:56.865Z,26.13
2023-02-11T18:45:28.715Z,24.03
2023-02-11T18:48:05.387Z,24.27
2023-02-11T18:50:35.449Z,25.73
2023-02-11T18:53:05.426Z,25.70
2023-02-11T18:55:35.429Z,24.83
2023-02-11T18:58:05.428Z,25.97
2023-02-11T19:00:35.586Z,25.67
2023-02-11T19:03:08.064Z,24.97
2023-02-11T19:05:44.070Z,25.67
2023-02-11T19:08:13.994Z,25.30
2023-02-11T19:10:44.510Z,25.67
2023-02-11T19:13:14.598Z,25.53
2023-02-11T19:15:45.480Z,25.73
2023-02-11T19:18:18.779Z,26.27
2023-02-11T19:20:48.569Z,25.53
2023-02-11T19:23:18.343Z,24.80
2023-02-11T19:25:50.011Z,25.57
2023-02-11T19:28:20.031Z,25.10
2023-02-11T19:30:49.891Z,26.03
2023-02-11T19:33:22.454Z,25.87
2023-02-11T19:35:52.654Z,26.07
2023-02-11T19:38:22.844Z,26.47
2023-02-11T19:40:59.089Z,26.73
2023-02-11T19:43:28.994Z,26.17
2023-02-11T19:45:58.897Z,25.77
2023-02-11T19:48:31.573Z,26.17
2023-02-11T19:51:01.522Z,25.30
2023-02-11T19:53:31.525Z,25.93
2023-02-11T19:56:04.009Z,26.13
2023-02-11T19:58:33.753Z,25.90
2023-02-11T20:01:09.184Z,25.13
2023-02-11T20:03:42.786Z,26.73
2023-02-11T20:06:18.214Z,26.60
2023-02-11T20:08:47.973Z,27.70
2023-02-11T20:11:19.784Z,24.83
2023-02-11T20:13:49.942Z,26.73
2023-02-11T20:16:23.112Z,27.87
2023-02-11T20:18:57.201Z,27.67
2023-02-11T20:21:28.616Z,27.80
2023-02-11T20:23:58.630Z,26.60
2023-02-11T20:26:30.535Z,27.43
2023-02-11T20:29:02.351Z,28.27
2023-02-11T20:31:34.025Z,27.73
2023-02-11T20:34:06.837Z,27.47
2023-02-11T20:36:39.422Z,27.93
2023-02-11T20:39:09.971Z,26.90
2023-02-11T20:41:41.696Z,27.10
2023-02-11T20:44:14.309Z,27.03
2023-02-11T20:46:46.954Z,27.00
2023-02-11T20:49:22.703Z,27.90
2023-02-11T20:51:54.278Z,26.90
2023-02-11T20:54:25.934Z,26.97
2023-02-11T20:56:58.314Z,27.83
2023-02-11T20:59:28.194Z,28.60
2023-02-11T21:01:59.514Z,27.30
2023-02-11T21:04:33.435Z,27.00
2023-02-11T21:07:05.046Z,27.40
2023-02-11T21:09:36.064Z,29.13
2023-02-11T21:12:07.579Z,27.73
2023-02-11T21:14:37.313Z,27.00
2023-02-11T21:17:07.672Z,26.77
2023-02-11T21:19:41.478Z,25.80
2023-02-11T21:22:11.953Z,27.50
2023-02-11T21:24:41.990Z,28.10
2023-02-11T21:27:11.896Z,28.90
2023-02-11T21:29:53.531Z,27.20
2023-02-11T21:32:23.839Z,27.40
2023-02-11T21:34:56.949Z,28.73
2023-02-11T21:37:27.655Z,28.27
2023-02-11T21:39:57.562Z,27.57
2023-02-11T21:42:27.414Z,28.73
2023-02-11T21:44:57.184Z,28.10
2023-02-11T21:47:26.976Z,29.60
2023-02-11T21:49:59.396Z,28.47
2023-02-11T21:52:29.173Z,28.87
2023-02-11T21:54:59.099Z,27.30
2023-02-11T21:57:29.055Z,28.17
2023-02-11T21:59:58.914Z,28.90
2023-02-11T22:02:29.255Z,28.23
2023-02-11T22:05:02.984Z,28.23
2023-02-11T22:07:33.401Z,28.27
2023-02-11T22:10:04.868Z,28.10
2023-02-11T22:12:34.723Z,28.63
2023-02-11T22:15:04.700Z,28.30
2023-02-11T22:17:34.656Z,27.70
2023-02-11T22:20:07.800Z,27.53
2023-02-11T22:22:37.680Z,28.50
2023-02-11T22:25:08.194Z,29.30
2023-02-11T22:27:38.338Z,27.70
2023-02-11T22:30:09.549Z,26.03
2023-02-11T22:32:40.268Z,27.57
2023-02-11T22:35:12.734Z,26.13
2023-02-11T22:37:42.607Z,26.87
2023-02-11T22:40:13.740Z,26.67
2023-02-11T22:42:43.696Z,28.03
2023-02-11T22:45:13.640Z,25.87
2023-02-11T22:47:43.725Z,27.40
2023-02-11T22:50:16.291Z,26.90
2023-02-11T22:52:46.097Z,27.63
2023-02-11T22:55:15.817Z,25.87
2023-02-11T22:57:45.679Z,27.50
2023-02-11T23:00:17.151Z,28.17
2023-02-11T23:02:47.069Z,26.70
2023-02-11T23:05:22.382Z,26.33
2023-02-11T23:07:52.182Z,27.17
2023-02-11T23:10:21.957Z,25.60
2023-02-11T23:12:51.804Z,25.03
2023-02-11T23:15:21.558Z,26.67
2023-02-11T23:17:51.488Z,24.07
2023-02-11T23:20:24.098Z,26.07
2023-02-11T23:22:53.962Z,25.57
2023-02-11T23:25:23.890Z,26.60
2023-02-11T23:27:53.701Z,24.83
2023-02-11T23:30:27.661Z,26.10
2023-02-11T23:32:57.547Z,26.53
2023-02-11T23:35:30.137Z,50.03
2023-02-11T23:37:59.960Z,31.07
2023-02-11T23:40:29.819Z,28.03
2023-02-11T23:42:59.660Z,26.43
2023-02-11T23:45:29.512Z,25.83
2023-02-11T23:47:59.403Z,26.63
2023-02-11T23:50:32.736Z,24.43
2023-02-11T23:53:02.694Z,24.27
2023-02-11T23:55:32.794Z,25.73
2023-02-11T23:58:02.530Z,24.23
